createdAt,value
2023-01-08T00:01:19.814Z,100109.00
2023-01-08T00:03:47.033Z,100114.00
2023-01-08T00:06:21.549Z,100101.00
2023-01-08T00:08:49.225Z,100096.00
2023-01-08T00:11:16.933Z,100092.00
2023-01-08T00:13:44.253Z,100096.00
2023-01-08T00:16:17.229Z,100098.00
2023-01-08T00:18:46.839Z,100107.00
2023-01-08T00:21:14.544Z,100105.00
2023-01-08T00:23:41.881Z,100103.00
2023-01-08T00:26:11.000Z,100090.00
2023-01-08T00:28:39.452Z,100098.00
2023-01-08T00:31:12.632Z,100091.00
2023-01-08T00:33:41.852Z,100087.00
2023-01-08T00:36:12.329Z,100084.00
2023-01-08T00:38:39.660Z,100076.00
2023-01-08T00:41:07.070Z,100082.00
2023-01-08T00:43:34.601Z,100067.00
2023-01-08T00:46:02.290Z,100067.00
2023-01-08T00:48:29.639Z,100066.00
2023-01-08T00:50:57.081Z,100059.00
2023-01-08T00:53:24.682Z,100057.00
2023-01-08T00:56:00.516Z,100077.00
2023-01-08T00:58:27.830Z,100073.00
2023-01-08T01:00:55.033Z,100067.00
2023-01-08T01:03:22.313Z,100064.00
2023-01-08T01:05:50.139Z,100054.00
2023-01-08T01:08:17.491Z,100061.00
2023-01-08T01:10:44.642Z,100058.00
2023-01-08T01:13:11.829Z,100065.00
2023-01-08T01:15:39.036Z,100061.00
2023-01-08T01:18:06.215Z,100055.00
2023-01-08T01:20:33.963Z,100054.00
2023-01-08T01:23:01.118Z,100053.00
2023-01-08T01:25:28.164Z,100064.00
2023-01-08T01:27:55.262Z,100052.00
2023-01-08T01:30:22.494Z,100067.00
2023-01-08T01:32:49.906Z,100064.00
2023-01-08T01:35:17.329Z,100051.00
2023-01-08T01:37:44.637Z,100056.00
2023-01-08T01:40:12.039Z,100055.00
2023-01-08T01:42:41.328Z,100048.00
2023-01-08T01:45:21.821Z,100051.00
2023-01-08T01:48:14.128Z,100052.00
2023-01-08T01:50:47.578Z,100037.00
2023-01-08T01:53:34.560Z,100036.00
2023-01-08T01:56:04.641Z,100025.00
2023-01-08T01:58:32.855Z,100023.00
2023-01-08T02:01:06.163Z,100025.00
2023-01-08T02:03:39.635Z,100029.00
2023-01-08T02:06:06.865Z,100021.00
2023-01-08T02:08:58.283Z,100011.00
2023-01-08T02:11:49.171Z,100008.00
2023-01-08T02:15:18.481Z,100024.00
2023-01-08T02:17:59.592Z,100008.00
2023-01-08T02:20:42.887Z,100007.00
2023-01-08T02:23:35.846Z,100006.00
2023-01-08T02:26:31.246Z,100000.00
2023-01-08T02:29:11.796Z,99995.00
2023-01-08T02:31:43.283Z,99999.00
2023-01-08T02:34:12.023Z,99984.00
2023-01-08T02:36:54.486Z,99977.00
2023-01-08T02:39:57.191Z,99988.00
2023-01-08T02:42:55.678Z,99980.00
2023-01-08T02:45:36.967Z,99982.00
2023-01-08T02:48:15.171Z,99975.00
2023-01-08T02:50:49.397Z,99968.00
2023-01-08T02:53:47.374Z,99960.00
2023-01-08T02:56:24.176Z,99964.00
2023-01-08T02:58:56.265Z,99957.00
2023-01-08T03:01:26.367Z,99964.00
2023-01-08T03:04:06.956Z,99957.00
2023-01-08T03:06:34.316Z,99964.00
2023-01-08T03:09:02.037Z,99955.00
2023-01-08T03:11:46.990Z,99972.00
2023-01-08T03:14:27.009Z,99970.00
2023-01-08T03:17:24.412Z,99973.00
2023-01-08T03:19:58.170Z,99968.00
2023-01-08T03:22:26.851Z,99972.00
2023-01-08T03:24:56.912Z,99974.00
2023-01-08T03:27:29.600Z,99967.00
2023-01-08T03:29:59.819Z,99974.00
2023-01-08T03:32:31.334Z,99971.00
2023-01-08T03:35:03.040Z,99959.00
2023-01-08T03:37:39.007Z,99969.00
2023-01-08T03:40:20.370Z,99965.00
2023-01-08T03:42:48.027Z,99980.00
2023-01-08T03:45:15.392Z,99967.00
2023-01-08T03:47:44.701Z,99959.00
2023-01-08T03:50:21.459Z,99967.00
2023-01-08T03:52:48.770Z,99980.00
2023-01-08T03:55:16.050Z,99972.00
2023-01-08T03:57:43.291Z,99965.00
2023-01-08T04:00:11.461Z,99964.00
2023-01-08T04:02:38.930Z,99968.00
2023-01-08T04:05:06.895Z,99955.00
2023-01-08T04:07:34.046Z,99957.00
2023-01-08T04:10:01.291Z,99962.00
2023-01-08T04:12:28.613Z,99955.00
2023-01-08T04:14:55.941Z,99946.00
2023-01-08T04:17:23.177Z,99932.00
2023-01-08T04:19:50.415Z,99952.00
2023-01-08T04:22:17.574Z,99955.00
2023-01-08T04:24:44.782Z,99946.00
2023-01-08T04:27:12.071Z,99942.00
2023-01-08T04:29:39.417Z,99941.00
2023-01-08T04:32:06.698Z,99935.00
2023-01-08T04:34:34.067Z,99939.00
2023-01-08T04:37:02.091Z,99943.00
2023-01-08T04:39:29.556Z,99938.00
2023-01-08T04:41:57.012Z,99925.00
2023-01-08T04:44:24.323Z,99925.00
2023-01-08T04:46:51.625Z,99912.00
2023-01-08T04:49:18.893Z,99914.00
2023-01-08T04:51:46.290Z,99914.00
2023-01-08T04:54:13.696Z,99912.00
2023-01-08T04:56:40.982Z,99900.00
2023-01-08T04:59:08.293Z,99919.00
2023-01-08T05:01:35.731Z,99918.00
2023-01-08T05:04:05.880Z,99907.00
2023-01-08T05:06:33.977Z,99911.00
2023-01-08T05:09:01.968Z,99897.00
2023-01-08T05:11:29.296Z,99910.00
2023-01-08T05:13:56.893Z,99907.00
2023-01-08T05:16:24.428Z,99914.00
2023-01-08T05:18:52.894Z,99910.00
2023-01-08T05:21:20.225Z,99901.00
2023-01-08T05:23:50.944Z,99898.00
2023-01-08T05:26:19.511Z,99895.00
2023-01-08T05:28:47.490Z,99903.00
2023-01-08T05:31:16.809Z,99902.00
2023-01-08T05:33:44.074Z,99915.00
2023-01-08T05:36:13.275Z,99910.00
2023-01-08T05:38:41.301Z,99908.00
2023-01-08T05:41:09.884Z,99919.00
2023-01-08T05:43:37.835Z,99912.00
2023-01-08T05:46:06.283Z,99914.00
2023-01-08T05:48:36.067Z,99922.00
2023-01-08T05:51:05.230Z,99927.00
2023-01-08T05:53:33.226Z,99935.00
2023-01-08T05:56:09.344Z,99960.00
2023-01-08T05:58:37.105Z,99961.00
2023-01-08T06:01:13.044Z,99955.00
2023-01-08T06:03:40.348Z,99958.00
2023-01-08T06:06:10.342Z,99944.00
2023-01-08T06:08:38.096Z,99937.00
2023-01-08T06:11:09.032Z,99945.00
2023-01-08T06:13:38.123Z,99935.00
2023-01-08T06:16:05.947Z,99931.00
2023-01-08T06:18:33.330Z,99938.00
2023-01-08T06:21:02.310Z,99931.00
2023-01-08T06:23:29.592Z,99940.00
2023-01-08T06:25:59.953Z,99942.00
2023-01-08T06:28:27.460Z,99936.00
2023-01-08T06:30:57.364Z,99947.00
2023-01-08T06:33:24.939Z,99952.00
2023-01-08T06:35:52.221Z,99958.00
2023-01-08T06:38:19.658Z,99959.00
2023-01-08T06:40:47.916Z,99960.00
2023-01-08T06:43:15.736Z,99961.00
2023-01-08T06:45:43.037Z,99968.00
2023-01-08T06:48:10.360Z,99965.00
2023-01-08T06:50:37.696Z,99977.00
2023-01-08T06:53:05.021Z,99968.00
2023-01-08T06:55:32.356Z,99969.00
2023-01-08T06:57:59.545Z,99964.00
2023-01-08T07:00:27.604Z,99967.00
2023-01-08T07:02:56.200Z,99968.00
2023-01-08T07:05:24.621Z,99968.00
2023-01-08T07:07:52.356Z,99969.00
2023-01-08T07:10:20.234Z,99967.00
2023-01-08T07:12:48.443Z,99973.00
2023-01-08T07:15:16.371Z,99985.00
2023-01-08T07:17:43.566Z,99980.00
2023-01-08T07:20:11.463Z,99973.00
2023-01-08T07:22:38.812Z,99976.00
2023-01-08T07:25:07.373Z,99976.00
2023-01-08T07:27:34.675Z,99975.00
2023-01-08T07:30:01.968Z,99966.00
2023-01-08T07:32:29.414Z,99967.00
2023-01-08T07:34:59.228Z,99946.00
2023-01-08T07:37:29.412Z,99958.00
2023-01-08T07:39:56.658Z,99960.00
2023-01-08T07:42:23.924Z,99971.00
2023-01-08T07:44:51.136Z,99964.00
2023-01-08T07:47:18.402Z,99970.00
2023-01-08T07:49:45.628Z,99975.00
2023-01-08T07:52:12.839Z,99969.00
2023-01-08T07:54:40.053Z,99973.00
2023-01-08T07:57:07.256Z,99972.00
2023-01-08T07:59:34.526Z,99962.00
2023-01-08T08:02:01.961Z,99957.00
2023-01-08T08:04:29.229Z,99963.00
2023-01-08T08:06:56.532Z,99957.00
2023-01-08T08:09:23.965Z,99965.00
2023-01-08T08:11:51.240Z,99946.00
2023-01-08T08:14:18.604Z,99955.00
2023-01-08T08:16:46.124Z,99960.00
2023-01-08T08:19:13.794Z,99951.00
2023-01-08T08:21:41.112Z,99959.00
2023-01-08T08:24:08.659Z,99955.00
2023-01-08T08:26:36.018Z,99957.00
2023-01-08T08:29:03.259Z,99956.00
2023-01-08T08:31:30.568Z,99961.00
2023-01-08T08:33:57.725Z,99943.00
2023-01-08T08:36:31.541Z,99943.00
2023-01-08T08:38:58.721Z,99943.00
2023-01-08T08:41:26.022Z,99936.00
2023-01-08T08:43:53.370Z,99920.00
2023-01-08T08:46:20.789Z,99930.00
2023-01-08T08:48:48.468Z,99922.00
2023-01-08T08:51:15.804Z,99927.00
2023-01-08T08:53:43.215Z,99928.00
2023-01-08T08:56:10.514Z,99934.00
2023-01-08T08:58:42.054Z,99924.00
2023-01-08T09:01:09.480Z,99915.00
2023-01-08T09:03:37.408Z,99916.00
2023-01-08T09:06:05.563Z,99903.00
2023-01-08T09:08:32.898Z,99902.00
2023-01-08T09:11:02.316Z,99902.00
2023-01-08T09:13:29.672Z,99910.00
2023-01-08T09:15:59.587Z,99906.00
2023-01-08T09:18:27.231Z,99903.00
2023-01-08T09:20:54.480Z,99903.00
2023-01-08T09:23:21.792Z,99902.00
2023-01-08T09:25:49.145Z,99908.00
2023-01-08T09:28:17.422Z,99909.00
2023-01-08T09:30:44.729Z,99899.00
2023-01-08T09:33:12.004Z,99906.00
2023-01-08T09:35:39.274Z,99897.00
2023-01-08T09:38:06.459Z,99899.00
2023-01-08T09:40:48.601Z,99891.00
2023-01-08T09:43:21.583Z,99901.00
2023-01-08T09:45:58.439Z,99895.00
2023-01-08T09:48:31.763Z,99895.00
2023-01-08T09:50:59.251Z,99896.00
2023-01-08T09:53:27.036Z,99892.00
2023-01-08T09:56:10.993Z,99893.00
2023-01-08T09:58:54.711Z,99889.00
2023-01-08T10:01:30.391Z,99875.00
2023-01-08T10:04:04.852Z,99877.00
2023-01-08T10:06:33.144Z,99884.00
2023-01-08T10:09:00.544Z,99867.00
2023-01-08T10:11:43.522Z,99849.00
2023-01-08T10:14:22.177Z,99861.00
2023-01-08T10:17:02.588Z,99860.00
2023-01-08T10:19:29.724Z,99858.00
2023-01-08T10:21:58.480Z,99842.00
2023-01-08T10:24:41.846Z,99833.00
2023-01-08T10:27:23.928Z,99834.00
2023-01-08T10:29:52.444Z,99830.00
2023-01-08T10:32:30.187Z,99828.00
2023-01-08T10:34:59.140Z,99827.00
2023-01-08T10:37:37.766Z,99824.00
2023-01-08T10:40:29.791Z,99824.00
2023-01-08T10:43:04.920Z,99826.00
2023-01-08T10:45:33.255Z,99823.00
2023-01-08T10:48:06.882Z,99821.00
2023-01-08T10:50:35.347Z,99811.00
2023-01-08T10:53:06.544Z,99795.00
2023-01-08T10:55:38.635Z,99796.00
2023-01-08T10:58:15.774Z,99800.00
2023-01-08T11:00:43.181Z,99810.00
2023-01-08T11:03:36.844Z,99801.00
2023-01-08T11:06:39.655Z,99792.00
2023-01-08T11:09:35.160Z,99788.00
2023-01-08T11:12:02.651Z,99785.00
2023-01-08T11:14:35.405Z,99772.00
2023-01-08T11:17:12.072Z,99786.00
2023-01-08T11:19:40.219Z,99775.00
2023-01-08T11:22:29.631Z,99771.00
2023-01-08T11:24:58.005Z,99777.00
2023-01-08T11:27:43.028Z,99769.00
2023-01-08T11:30:23.410Z,99775.00
2023-01-08T11:33:13.824Z,99774.00
2023-01-08T11:35:53.124Z,99761.00
2023-01-08T11:38:20.610Z,99757.00
2023-01-08T11:41:28.435Z,99744.00
2023-01-08T11:44:31.993Z,99736.00
2023-01-08T11:47:53.344Z,99731.00
2023-01-08T11:50:50.220Z,99718.00
2023-01-08T11:53:32.500Z,99721.00
2023-01-08T11:56:50.280Z,99718.00
2023-01-08T11:59:23.116Z,99708.00
2023-01-08T12:02:32.408Z,99699.00
2023-01-08T12:05:49.499Z,99696.00
2023-01-08T12:08:33.792Z,99700.00
2023-01-08T12:11:31.091Z,99701.00
2023-01-08T12:14:30.012Z,99699.00
2023-01-08T12:17:07.622Z,99704.00
2023-01-08T12:19:37.388Z,99702.00
2023-01-08T12:23:06.335Z,99694.00
2023-01-08T12:26:04.565Z,99694.00
2023-01-08T12:29:07.174Z,99703.00
2023-01-08T12:32:02.926Z,99687.00
2023-01-08T12:35:23.011Z,99688.00
2023-01-08T12:38:16.200Z,99683.00
2023-01-08T12:40:52.724Z,99675.00
2023-01-08T12:43:25.605Z,99682.00
2023-01-08T12:45:59.613Z,99676.00
2023-01-08T12:48:35.604Z,99671.00
2023-01-08T12:51:19.437Z,99668.00
2023-01-08T12:54:07.902Z,99662.00
2023-01-08T12:56:53.435Z,99661.00
2023-01-08T12:59:55.496Z,99657.00
2023-01-08T13:03:04.498Z,99665.00
2023-01-08T13:05:37.321Z,99647.00
2023-01-08T13:08:19.752Z,99654.00
2023-01-08T13:10:54.061Z,99644.00
2023-01-08T13:13:36.221Z,99651.00
2023-01-08T13:16:24.598Z,99648.00
2023-01-08T13:19:01.635Z,99646.00
2023-01-08T13:21:38.700Z,99651.00
2023-01-08T13:24:33.258Z,99651.00
2023-01-08T13:27:27.095Z,99643.00
2023-01-08T13:29:54.649Z,99647.00
2023-01-08T13:32:49.587Z,99625.00
2023-01-08T13:35:16.796Z,99636.00
2023-01-08T13:37:47.693Z,99624.00
2023-01-08T13:40:42.798Z,99630.00
2023-01-08T13:43:47.042Z,99624.00
2023-01-08T13:46:19.422Z,99623.00
2023-01-08T13:48:56.869Z,99615.00
2023-01-08T13:51:41.820Z,99614.00
2023-01-08T13:54:15.147Z,99615.00
2023-01-08T13:56:45.619Z,99612.00
2023-01-08T13:59:28.887Z,99604.00
2023-01-08T14:01:57.507Z,99597.00
2023-01-08T14:04:24.841Z,99599.00
2023-01-08T14:06:52.191Z,99594.00
2023-01-08T14:09:25.253Z,99586.00
2023-01-08T14:11:56.071Z,99575.00
2023-01-08T14:14:24.925Z,99587.00
2023-01-08T14:16:53.920Z,99582.00
2023-01-08T14:19:24.691Z,99579.00
2023-01-08T14:22:01.692Z,99576.00
2023-01-08T14:24:29.122Z,99571.00
2023-01-08T14:27:00.039Z,99567.00
2023-01-08T14:29:30.906Z,99563.00
2023-01-08T14:32:01.380Z,99565.00
2023-01-08T14:34:32.067Z,99561.00
2023-01-08T14:36:59.353Z,99556.00
2023-01-08T14:39:36.543Z,99552.00
2023-01-08T14:42:40.297Z,99550.00
2023-01-08T14:45:31.676Z,99548.00
2023-01-08T14:48:19.466Z,99550.00
2023-01-08T14:51:04.349Z,99541.00
2023-01-08T14:53:42.300Z,99539.00
2023-01-08T14:56:16.285Z,99554.00
2023-01-08T14:59:10.497Z,99546.00
2023-01-08T15:01:38.167Z,99544.00
2023-01-08T15:04:14.839Z,99552.00
2023-01-08T15:06:42.186Z,99536.00
2023-01-08T15:09:32.021Z,99550.00
2023-01-08T15:12:06.731Z,99539.00
2023-01-08T15:14:37.586Z,99535.00
2023-01-08T15:17:20.207Z,99533.00
2023-01-08T15:19:53.045Z,99539.00
2023-01-08T15:22:26.035Z,99522.00
2023-01-08T15:25:03.278Z,99525.00
2023-01-08T15:27:31.664Z,99526.00
2023-01-08T15:30:03.912Z,99529.00
2023-01-08T15:32:40.051Z,99532.00
2023-01-08T15:35:18.871Z,99529.00
2023-01-08T15:37:46.399Z,99526.00
2023-01-08T15:40:13.941Z,99510.00
2023-01-08T15:43:03.127Z,99524.00
2023-01-08T15:45:33.946Z,99516.00
2023-01-08T15:48:01.651Z,99526.00
2023-01-08T15:50:32.625Z,99530.00
2023-01-08T15:53:01.250Z,99537.00
2023-01-08T15:55:28.796Z,99535.00
2023-01-08T15:57:58.969Z,99536.00
2023-01-08T16:00:29.587Z,99530.00
2023-01-08T16:02:59.650Z,99523.00
2023-01-08T16:05:30.799Z,99520.00
2023-01-08T16:07:58.020Z,99520.00
2023-01-08T16:10:25.804Z,99526.00
2023-01-08T16:12:53.092Z,99520.00
2023-01-08T16:15:20.461Z,99520.00
2023-01-08T16:17:47.773Z,99516.00
2023-01-08T16:20:15.841Z,99517.00
2023-01-08T16:22:43.861Z,99510.00
2023-01-08T16:25:11.959Z,99511.00
2023-01-08T16:27:40.528Z,99504.00
2023-01-08T16:30:14.765Z,99514.00
2023-01-08T16:32:43.198Z,99517.00
2023-01-08T16:35:11.485Z,99514.00
2023-01-08T16:37:39.925Z,99517.00
2023-01-08T16:40:08.140Z,99514.00
2023-01-08T16:42:36.061Z,99504.00
2023-01-08T16:45:03.613Z,99505.00
2023-01-08T16:47:36.964Z,99511.00
2023-01-08T16:50:04.803Z,99514.00
2023-01-08T16:52:32.136Z,99509.00
2023-01-08T16:54:59.553Z,99500.00
2023-01-08T16:57:26.803Z,99500.00
2023-01-08T16:59:53.932Z,99496.00
2023-01-08T17:02:21.834Z,99491.00
2023-01-08T17:04:49.122Z,99489.00
2023-01-08T17:07:16.344Z,99482.00
2023-01-08T17:09:43.598Z,99490.00
2023-01-08T17:12:10.947Z,99480.00
2023-01-08T17:14:41.383Z,99479.00
2023-01-08T17:17:11.274Z,99484.00
2023-01-08T17:19:38.589Z,99485.00
2023-01-08T17:22:05.620Z,99475.00
2023-01-08T17:24:33.231Z,99466.00
2023-01-08T17:27:00.424Z,99476.00
2023-01-08T17:29:27.783Z,99455.00
2023-01-08T17:31:57.875Z,99458.00
2023-01-08T17:34:25.199Z,99460.00
2023-01-08T17:36:52.440Z,99441.00
2023-01-08T17:39:20.137Z,99453.00
2023-01-08T17:42:06.088Z,99439.00
2023-01-08T17:44:33.537Z,99436.00
2023-01-08T17:47:00.909Z,99433.00
2023-01-08T17:49:28.183Z,99441.00
2023-01-08T17:51:57.133Z,99440.00
2023-01-08T17:54:24.597Z,99436.00
2023-01-08T17:56:53.749Z,99427.00
2023-01-08T17:59:21.821Z,99435.00
2023-01-08T18:01:52.983Z,99427.00
2023-01-08T18:04:20.402Z,99418.00
2023-01-08T18:06:47.911Z,99418.00
2023-01-08T18:09:15.711Z,99402.00
2023-01-08T18:11:43.786Z,99414.00
2023-01-08T18:14:13.929Z,99403.00
2023-01-08T18:16:45.771Z,99419.00
2023-01-08T18:19:14.092Z,99412.00
2023-01-08T18:21:41.644Z,99405.00
2023-01-08T18:24:10.353Z,99411.00
2023-01-08T18:26:38.539Z,99404.00
2023-01-08T18:29:07.039Z,99400.00
2023-01-08T18:31:34.693Z,99402.00
2023-01-08T18:34:03.936Z,99410.00
2023-01-08T18:36:31.461Z,99398.00
2023-01-08T18:38:58.776Z,99395.00
2023-01-08T18:41:44.910Z,99387.00
2023-01-08T18:44:12.215Z,99387.00
2023-01-08T18:46:39.719Z,99371.00
2023-01-08T18:49:07.606Z,99366.00
2023-01-08T18:51:36.004Z,99368.00
2023-01-08T18:54:04.770Z,99373.00
2023-01-08T18:56:36.653Z,99361.00
2023-01-08T18:59:06.621Z,99352.00
2023-01-08T19:01:36.389Z,99360.00
2023-01-08T19:04:04.157Z,99359.00
2023-01-08T19:07:27.931Z,99354.00
2023-01-08T19:09:57.085Z,99351.00
2023-01-08T19:12:27.323Z,99351.00
2023-01-08T19:14:54.979Z,99342.00
2023-01-08T19:17:22.248Z,99336.00
2023-01-08T19:19:49.559Z,99335.00
2023-01-08T19:22:17.063Z,99330.00
2023-01-08T19:24:44.347Z,99326.00
2023-01-08T19:27:12.821Z,99322.00
2023-01-08T19:29:40.202Z,99308.00
2023-01-08T19:32:07.891Z,99310.00
2023-01-08T19:34:35.375Z,99314.00
2023-01-08T19:37:03.354Z,99304.00
2023-01-08T19:39:30.886Z,99298.00
2023-01-08T19:42:35.277Z,99289.00
2023-01-08T19:45:21.194Z,99299.00
2023-01-08T19:47:48.568Z,99290.00
2023-01-08T19:50:17.314Z,99285.00
2023-01-08T19:53:04.946Z,99279.00
2023-01-08T19:55:34.849Z,99283.00
2023-01-08T19:58:03.566Z,99275.00
2023-01-08T20:00:39.084Z,99278.00
2023-01-08T20:03:07.120Z,99264.00
2023-01-08T20:05:34.284Z,99256.00
2023-01-08T20:08:08.087Z,99254.00
2023-01-08T20:10:35.474Z,99244.00
2023-01-08T20:13:08.606Z,99248.00
2023-01-08T20:15:35.972Z,99243.00
2023-01-08T20:18:04.182Z,99241.00
2023-01-08T20:20:31.859Z,99239.00
2023-01-08T20:22:59.205Z,99241.00
2023-01-08T20:25:26.609Z,99228.00
2023-01-08T20:27:53.985Z,99224.00
2023-01-08T20:30:24.414Z,99236.00
2023-01-08T20:32:51.566Z,99232.00
2023-01-08T20:35:18.748Z,99221.00
2023-01-08T20:37:46.884Z,99211.00
2023-01-08T20:40:14.334Z,99213.00
2023-01-08T20:42:45.803Z,99205.00
2023-01-08T20:45:13.221Z,99208.00
2023-01-08T20:47:40.522Z,99206.00
2023-01-08T20:50:19.175Z,99206.00
2023-01-08T20:52:47.078Z,99189.00
2023-01-08T20:55:14.525Z,99190.00
2023-01-08T20:57:41.618Z,99183.00
2023-01-08T21:00:09.910Z,99184.00
2023-01-08T21:02:37.112Z,99186.00
2023-01-08T21:05:04.737Z,99181.00
2023-01-08T21:07:32.010Z,99175.00
2023-01-08T21:09:59.395Z,99181.00
2023-01-08T21:12:26.819Z,99172.00
2023-01-08T21:14:54.631Z,99173.00
2023-01-08T21:17:22.509Z,99172.00
2023-01-08T21:19:49.757Z,99168.00
2023-01-08T21:22:16.963Z,99157.00
2023-01-08T21:24:44.199Z,99161.00
2023-01-08T21:27:11.465Z,99147.00
2023-01-08T21:29:38.809Z,99152.00
2023-01-08T21:32:07.923Z,99149.00
2023-01-08T21:34:35.143Z,99150.00
2023-01-08T21:37:04.367Z,99137.00
2023-01-08T21:39:33.010Z,99131.00
2023-01-08T21:42:19.071Z,99118.00
2023-01-08T21:45:04.864Z,99127.00
2023-01-08T21:47:32.163Z,99132.00
2023-01-08T21:49:59.478Z,99132.00
2023-01-08T21:52:45.451Z,99125.00
2023-01-08T21:55:17.079Z,99116.00
2023-01-08T21:57:45.648Z,99109.00
2023-01-08T22:00:15.029Z,99100.00
2023-01-08T22:02:42.609Z,99104.00
2023-01-08T22:05:10.194Z,99098.00
2023-01-08T22:07:38.005Z,99088.00
2023-01-08T22:10:07.458Z,99088.00
2023-01-08T22:12:34.681Z,99080.00
2023-01-08T22:15:02.159Z,99079.00
2023-01-08T22:17:31.563Z,99074.00
2023-01-08T22:20:00.617Z,99062.00
2023-01-08T22:22:28.818Z,99065.00
2023-01-08T22:24:56.066Z,99062.00
2023-01-08T22:27:23.506Z,99073.00
2023-01-08T22:29:50.923Z,99063.00
2023-01-08T22:32:21.044Z,99069.00
2023-01-08T22:34:48.563Z,99071.00
2023-01-08T22:37:17.363Z,99066.00
2023-01-08T22:39:46.388Z,99071.00
2023-01-08T22:42:13.608Z,99083.00
2023-01-08T22:44:44.040Z,99072.00
2023-01-08T22:47:11.409Z,99071.00
2023-01-08T22:49:38.780Z,99074.00
2023-01-08T22:52:07.292Z,99080.00
2023-01-08T22:54:34.643Z,99087.00
2023-01-08T22:57:01.910Z,99092.00
2023-01-08T22:59:29.062Z,99092.00
2023-01-08T23:01:56.791Z,99078.00
2023-01-08T23:04:24.073Z,99073.00
2023-01-08T23:06:51.435Z,99079.00
2023-01-08T23:09:19.327Z,99072.00
2023-01-08T23:11:46.621Z,99084.00
2023-01-08T23:14:18.738Z,99089.00
2023-01-08T23:16:46.208Z,99081.00
2023-01-08T23:20:12.009Z,99079.00
2023-01-08T23:22:40.008Z,99083.00
2023-01-08T23:25:08.098Z,99069.00
2023-01-08T23:27:35.702Z,99073.00
2023-01-08T23:30:03.815Z,99071.00
2023-01-08T23:32:31.102Z,99062.00
2023-01-08T23:34:58.453Z,99064.00
2023-01-08T23:37:25.717Z,99072.00
2023-01-08T23:39:52.929Z,99072.00
2023-01-08T23:42:20.144Z,99066.00
2023-01-08T23:44:50.217Z,99083.00
2023-01-08T23:47:17.448Z,99082.00
2023-01-08T23:49:44.734Z,99072.00
2023-01-08T23:52:11.980Z,99085.00
2023-01-08T23:54:39.223Z,99093.00
2023-01-08T23:57:06.995Z,99116.00
2023-01-08T23:59:34.523Z,99111.00
